Time;durP1;ratioP1;P1;durP2;ratioP2;P2;SDS_P1;SDS_P2;PMS_P1;PMS_P2;Temp;Humidity;BMP_temperature;BMP_pressure;BME280_temperature;BME280_humidity;BME280_pressure;Samples;Min_cycle;Max_cycle;Signal;HPM_P1;HPM_P2
2023/03/14 00:01:17;;;;;;;13.15;3.25;;;9.00;97.10;;;;;;5012614;28;20037;-82
2023/03/14 00:03:43;;;;;;;9.32;3.50;;;8.90;97.20;;;;;;5007669;28;20034;-81
2023/03/14 00:06:10;;;;;;;8.48;3.05;;;8.90;97.60;;;;;;5006374;28;20037;-81
2023/03/14 00:08:36;;;;;;;7.97;3.30;;;9.10;97.70;;;;;;5008682;28;20132;-77
2023/03/14 00:11:07;;;;;;;10.38;3.10;;;9.10;97.30;;;;;;5008773;28;20394;-80
2023/03/14 00:13:32;;;;;;;10.00;3.78;;;9.10;97.10;;;;;;5011652;28;20052;-80
2023/03/14 00:16:10;;;;;;;8.75;3.40;;;9.10;97.00;;;;;;5005975;28;20455;-81
2023/03/14 00:18:36;;;;;;;13.10;3.70;;;9.10;96.80;;;;;;5007570;28;20065;-78
2023/03/14 00:21:03;;;;;;;10.55;4.10;;;9.30;96.90;;;;;;5009348;28;20088;-79
2023/03/14 00:23:30;;;;;;;9.00;3.40;;;9.30;96.30;;;;;;4994449;28;20041;-80
2023/03/14 00:26:00;;;;;;;10.88;3.78;;;9.30;96.20;;;;;;5007863;28;20033;-79
2023/03/14 00:28:27;;;;;;;10.85;3.50;;;9.30;96.20;;;;;;5003863;28;20034;-81
2023/03/14 00:30:53;;;;;;;13.35;3.30;;;9.30;96.30;;;;;;5011316;28;20393;-80
2023/03/14 00:33:18;;;;;;;6.88;3.58;;;9.40;96.40;;;;;;5008317;28;20041;-79
2023/03/14 00:35:59;;;;;;;10.48;3.90;;;9.40;96.40;;;;;;5003002;28;20455;-81
2023/03/14 00:38:25;;;;;;;10.65;3.58;;;9.30;96.30;;;;;;5010377;28;20452;-81
2023/03/14 00:40:51;;;;;;;11.30;3.47;;;9.30;96.70;;;;;;5017581;28;20038;-80
2023/03/14 00:43:17;;;;;;;8.98;3.72;;;9.50;96.20;;;;;;5009205;28;20042;-78
2023/03/14 00:45:43;;;;;;;9.50;3.78;;;9.50;96.00;;;;;;5010157;28;20119;-81
2023/03/14 00:48:08;;;;;;;11.60;3.95;;;9.50;96.00;;;;;;5011885;28;20033;-80
2023/03/14 00:50:34;;;;;;;9.15;3.58;;;9.60;95.70;;;;;;5015140;28;20038;-81
2023/03/14 00:52:59;;;;;;;8.95;3.47;;;9.60;95.70;;;;;;5021091;28;20078;-81
2023/03/14 00:55:25;;;;;;;8.00;3.28;;;9.70;95.40;;;;;;5004842;28;20034;-81
2023/03/14 00:57:50;;;;;;;10.07;3.58;;;9.70;95.50;;;;;;5011468;28;20445;-79
2023/03/14 01:00:16;;;;;;;9.57;3.42;;;9.60;95.50;;;;;;5012723;28;20080;-82
2023/03/14 01:02:42;;;;;;;8.27;3.22;;;9.60;95.60;;;;;;5016679;28;20045;-81
2023/03/14 01:05:10;;;;;;;7.70;3.03;;;9.60;95.50;;;;;;5005027;28;20096;-82
2023/03/14 01:07:36;;;;;;;9.88;3.20;;;9.60;95.30;;;;;;5014527;28;20030;-81
2023/03/14 01:10:02;;;;;;;12.68;3.85;;;9.60;95.50;;;;;;5013006;28;20041;-80
2023/03/14 01:12:27;;;;;;;12.45;4.00;;;9.60;95.50;;;;;;5013591;28;20412;-81
2023/03/14 01:14:53;;;;;;;6.65;3.13;;;9.70;95.30;;;;;;5009105;28;20038;-81
2023/03/14 01:17:18;;;;;;;7.75;3.50;;;9.70;95.30;;;;;;5012352;28;20042;-81
2023/03/14 01:19:44;;;;;;;9.82;3.35;;;9.80;95.20;;;;;;5010204;28;20422;-82
2023/03/14 01:22:09;;;;;;;6.80;3.40;;;9.80;94.40;;;;;;5015295;28;20030;-81
2023/03/14 01:24:36;;;;;;;8.07;3.28;;;9.80;94.70;;;;;;5017532;28;20037;-80
2023/03/14 01:27:02;;;;;;;8.25;3.08;;;9.80;94.70;;;;;;5013518;28;20048;-81
2023/03/14 01:29:28;;;;;;;7.18;3.05;;;9.80;94.40;;;;;;5020589;28;20038;-80
2023/03/14 01:31:53;;;;;;;10.40;3.50;;;9.70;94.60;;;;;;5024602;28;20038;-75
2023/03/14 01:34:19;;;;;;;10.65;3.17;;;9.80;94.30;;;;;;5017449;28;20561;-81
2023/03/14 01:36:44;;;;;;;16.48;3.13;;;9.60;94.60;;;;;;5020602;28;20038;-81
2023/03/14 01:39:09;;;;;;;7.97;2.65;;;9.60;94.30;;;;;;5011799;28;20072;-82
2023/03/14 01:41:35;;;;;;;10.35;2.83;;;9.60;94.20;;;;;;5012343;28;20490;-81
2023/03/14 01:44:00;;;;;;;8.57;2.75;;;9.50;94.00;;;;;;5000143;28;20116;-77
2023/03/14 01:46:35;;;;;;;8.00;2.88;;;9.40;94.20;;;;;;5008191;28;20054;-79
2023/03/14 01:49:25;;;;;;;7.90;2.55;;;9.40;94.40;;;;;;5011582;28;20061;-77
2023/03/14 01:51:57;;;;;;;11.68;2.78;;;9.40;94.30;;;;;;5011253;28;20029;-82
2023/03/14 01:54:34;;;;;;;6.18;2.60;;;9.50;94.30;;;;;;5012300;28;20122;-81
2023/03/14 01:57:09;;;;;;;8.05;2.92;;;9.40;94.30;;;;;;5011192;28;20033;-82
2023/03/14 01:59:38;;;;;;;8.70;3.08;;;9.50;94.40;;;;;;5014359;28;20048;-80
2023/03/14 02:02:07;;;;;;;9.07;3.70;;;9.50;94.30;;;;;;5011219;28;20072;-81
2023/03/14 02:04:34;;;;;;;7.85;3.88;;;9.60;94.20;;;;;;5012280;28;20409;-77
2023/03/14 02:07:15;;;;;;;10.13;3.70;;;9.60;94.10;;;;;;5007525;28;20386;-82
2023/03/14 02:09:42;;;;;;;10.07;3.78;;;9.50;94.10;;;;;;5015902;28;20029;-82
2023/03/14 02:12:09;;;;;;;9.63;3.78;;;9.60;94.10;;;;;;5010564;28;20454;-82
2023/03/14 02:14:36;;;;;;;16.60;4.60;;;9.60;94.40;;;;;;5013858;28;20112;-77
2023/03/14 02:17:04;;;;;;;8.48;3.80;;;9.50;94.60;;;;;;5008501;28;20382;-79
2023/03/14 02:19:50;;;;;;;9.63;3.95;;;9.50;95.00;;;;;;5008417;28;20084;-82
2023/03/14 02:22:17;;;;;;;8.48;3.50;;;9.50;94.90;;;;;;4996045;28;20044;-78
2023/03/14 02:24:59;;;;;;;9.48;4.03;;;9.40;95.20;;;;;;5012892;28;20029;-82
2023/03/14 02:27:26;;;;;;;8.77;4.10;;;9.50;95.00;;;;;;5009146;28;20041;-81
2023/03/14 02:29:57;;;;;;;9.10;3.92;;;9.40;95.30;;;;;;5005888;28;20096;-80
2023/03/14 02:32:24;;;;;;;8.15;3.78;;;9.50;95.10;;;;;;5015318;28;20033;-75
2023/03/14 02:34:54;;;;;;;9.00;3.50;;;9.40;95.20;;;;;;5013138;28;20042;-81
2023/03/14 02:37:24;;;;;;;6.68;2.75;;;9.40;95.00;;;;;;5003854;28;20037;-82
2023/03/14 02:39:49;;;;;;;8.38;3.08;;;9.50;95.00;;;;;;5004944;28;20048;-81
2023/03/14 02:42:15;;;;;;;7.38;2.72;;;9.50;94.70;;;;;;5008831;28;20034;-81
2023/03/14 02:45:14;;;;;;;7.45;2.88;;;9.50;94.80;;;;;;5015185;28;20517;-81
2023/03/14 02:47:46;;;;;;;8.57;2.53;;;9.60;94.40;;;;;;5013115;28;20457;-80
2023/03/14 02:50:15;;;;;;;7.85;2.70;;;9.50;94.50;;;;;;5008738;28;20418;-81
2023/03/14 02:52:41;;;;;;;9.57;2.63;;;9.60;93.80;;;;;;5009782;28;20339;-79
2023/03/14 02:55:07;;;;;;;8.45;2.80;;;9.60;94.00;;;;;;5011977;28;20052;-81
2023/03/14 02:57:32;;;;;;;9.32;2.80;;;9.50;94.10;;;;;;5011312;28;20038;-81
2023/03/14 02:59:59;;;;;;;5.97;2.53;;;9.60;93.70;;;;;;5015947;28;20033;-82
2023/03/14 03:02:25;;;;;;;8.10;2.58;;;9.70;93.10;;;;;;5007106;28;20427;-77
2023/03/14 03:04:51;;;;;;;10.80;2.50;;;9.70;92.90;;;;;;5005399;28;20041;-78
2023/03/14 03:07:16;;;;;;;6.97;2.10;;;9.60;93.30;;;;;;5012396;28;20386;-81
2023/03/14 03:09:42;;;;;;;7.25;2.50;;;9.80;92.70;;;;;;5011315;28;20033;-81
2023/03/14 03:12:07;;;;;;;9.88;2.83;;;9.90;92.10;;;;;;5009038;28;20459;-81
2023/03/14 03:14:33;;;;;;;7.38;2.65;;;9.90;92.30;;;;;;5007881;28;20036;-80
2023/03/14 03:16:58;;;;;;;7.70;2.53;;;10.00;92.00;;;;;;5009110;28;20127;-81
2023/03/14 03:19:24;;;;;;;9.00;2.72;;;10.00;91.90;;;;;;5001089;28;20419;-80
2023/03/14 03:21:49;;;;;;;14.75;2.85;;;10.00;91.70;;;;;;5006791;28;20037;-82
2023/03/14 03:24:15;;;;;;;7.97;2.90;;;10.00;91.90;;;;;;5012674;28;20101;-79
2023/03/14 03:26:40;;;;;;;10.38;2.60;;;10.00;92.00;;;;;;5009700;28;20030;-81
2023/03/14 03:29:06;;;;;;;13.02;2.80;;;10.00;91.80;;;;;;5009146;28;20030;-74
2023/03/14 03:31:31;;;;;;;7.97;2.75;;;10.10;91.40;;;;;;5011585;28;20029;-80
2023/03/14 03:33:57;;;;;;;8.88;2.70;;;10.10;91.30;;;;;;5011626;28;20022;-80
2023/03/14 03:36:24;;;;;;;7.45;2.65;;;10.10;91.00;;;;;;5007110;28;20363;-80
2023/03/14 03:38:50;;;;;;;11.15;3.35;;;10.10;90.70;;;;;;5012433;28;20037;-81
2023/03/14 03:41:15;;;;;;;9.88;3.00;;;10.10;90.60;;;;;;5006251;28;20037;-82
2023/03/14 03:43:41;;;;;;;9.63;2.90;;;10.20;90.20;;;;;;5008457;28;20479;-78
2023/03/14 03:46:07;;;;;;;4.18;2.08;;;10.20;90.00;;;;;;5010624;28;20064;-81
2023/03/14 03:48:33;;;;;;;10.55;3.05;;;10.20;89.80;;;;;;5014774;28;20042;-82
2023/03/14 03:50:59;;;;;;;8.48;2.70;;;10.10;90.30;;;;;;5000740;28;20022;-81
2023/03/14 03:53:24;;;;;;;7.03;2.70;;;10.10;90.20;;;;;;5007568;28;20155;-81
2023/03/14 03:55:50;;;;;;;10.50;2.70;;;10.00;90.80;;;;;;5010627;28;20033;-81
2023/03/14 03:58:15;;;;;;;10.75;3.40;;;10.10;90.40;;;;;;5016137;28;20476;-80
2023/03/14 04:00:41;;;;;;;8.85;3.10;;;10.10;89.90;;;;;;5009221;28;20048;-78
2023/03/14 04:03:06;;;;;;;6.07;2.95;;;10.10;89.70;;;;;;5007858;28;20030;-79
2023/03/14 04:05:32;;;;;;;7.22;2.92;;;10.20;89.50;;;;;;5010882;28;20033;-81
2023/03/14 04:07:57;;;;;;;8.60;2.83;;;10.20;89.40;;;;;;5009284;28;20648;-82
2023/03/14 04:10:23;;;;;;;8.32;3.10;;;10.20;89.70;;;;;;5006628;28;20454;-82
2023/03/14 04:12:48;;;;;;;7.05;2.63;;;10.30;88.90;;;;;;5017236;28;20029;-82
2023/03/14 04:15:14;;;;;;;11.77;3.22;;;10.40;88.80;;;;;;5007809;28;20117;-81
2023/03/14 04:17:39;;;;;;;13.45;3.10;;;10.30;89.10;;;;;;5010591;28;20060;-79
2023/03/14 04:20:10;;;;;;;9.38;3.30;;;10.40;88.60;;;;;;4996893;28;20040;-82
2023/03/14 04:22:36;;;;;;;7.20;2.88;;;10.50;88.50;;;;;;5006736;28;20060;-76
2023/03/14 04:25:03;;;;;;;7.97;3.03;;;10.30;88.60;;;;;;5015980;28;20081;-81
2023/03/14 04:27:29;;;;;;;13.15;3.13;;;10.50;88.20;;;;;;5011284;28;20044;-80
2023/03/14 04:29:54;;;;;;;10.05;2.95;;;10.50;88.10;;;;;;5011016;28;20466;-80
2023/03/14 04:32:20;;;;;;;9.48;3.10;;;10.40;88.40;;;;;;5006339;28;20475;-82
2023/03/14 04:34:45;;;;;;;9.35;3.08;;;10.50;88.00;;;;;;4994432;28;20510;-82
2023/03/14 04:37:11;;;;;;;10.90;2.75;;;10.40;88.70;;;;;;5011754;28;20126;-75
2023/03/14 04:39:36;;;;;;;6.15;2.55;;;10.30;89.00;;;;;;5010924;28;20433;-79
2023/03/14 04:42:02;;;;;;;4.85;1.90;;;10.20;89.10;;;;;;5012111;28;20475;-80
2023/03/14 04:44:27;;;;;;;4.60;2.13;;;10.20;89.10;;;;;;5012098;28;20038;-80
2023/03/14 04:46:53;;;;;;;5.78;2.28;;;10.20;89.20;;;;;;5014540;28;20058;-82
2023/03/14 04:49:18;;;;;;;5.57;2.22;;;10.10;89.60;;;;;;4997537;28;20125;-81
2023/03/14 04:51:44;;;;;;;10.18;2.88;;;9.90;90.40;;;;;;5012370;28;20099;-82
2023/03/14 04:54:09;;;;;;;9.85;2.78;;;9.90;90.90;;;;;;5010713;28;20493;-82
2023/03/14 04:56:36;;;;;;;10.27;2.78;;;9.90;91.30;;;;;;5015432;28;20034;-80
2023/03/14 04:59:02;;;;;;;9.02;3.40;;;9.80;91.80;;;;;;5014793;28;20407;-82
2023/03/14 05:01:28;;;;;;;7.35;2.90;;;9.80;91.80;;;;;;5018742;28;20031;-81
2023/03/14 05:03:53;;;;;;;7.25;2.70;;;9.70;92.10;;;;;;5015537;28;20042;-81
2023/03/14 05:06:19;;;;;;;11.00;3.13;;;9.60;92.50;;;;;;5002669;28;20474;-81
2023/03/14 05:08:44;;;;;;;6.35;3.05;;;9.60;92.50;;;;;;5008367;28;20394;-81
2023/03/14 05:11:11;;;;;;;8.55;2.88;;;9.70;92.10;;;;;;5010517;28;20026;-81
2023/03/14 05:13:36;;;;;;;5.93;2.55;;;9.80;91.50;;;;;;5012351;28;20044;-81
2023/03/14 05:16:11;;;;;;;11.93;2.90;;;9.80;91.60;;;;;;5012895;28;20033;-81
2023/03/14 05:18:37;;;;;;;6.07;2.22;;;9.80;91.50;;;;;;5005622;28;20034;-80
2023/03/14 05:21:03;;;;;;;6.90;2.60;;;9.90;91.10;;;;;;5011250;28;20045;-81
2023/03/14 05:23:29;;;;;;;8.00;3.08;;;9.80;91.00;;;;;;5013157;28;20395;-79
2023/03/14 05:25:55;;;;;;;8.10;2.33;;;9.80;91.30;;;;;;5012041;28;20025;-82
2023/03/14 05:28:20;;;;;;;6.63;2.40;;;9.90;90.80;;;;;;4999262;28;20634;-79
2023/03/14 05:30:46;;;;;;;9.05;2.55;;;9.90;90.70;;;;;;5014670;28;20113;-79
2023/03/14 05:33:12;;;;;;;7.35;2.85;;;9.90;90.30;;;;;;5002229;28;20431;-78
2023/03/14 05:35:37;;;;;;;7.32;2.60;;;9.90;90.40;;;;;;4996271;28;20459;-78
2023/03/14 05:38:03;;;;;;;6.78;2.65;;;9.90;90.20;;;;;;5011055;28;20029;-78
2023/03/14 05:40:28;;;;;;;8.43;2.95;;;9.90;90.20;;;;;;5019218;28;20033;-78
2023/03/14 05:42:54;;;;;;;7.47;2.63;;;9.90;90.10;;;;;;5010523;28;20053;-78
2023/03/14 05:45:19;;;;;;;6.70;2.53;;;9.90;89.90;;;;;;5016370;28;20387;-78
2023/03/14 05:47:45;;;;;;;8.90;2.72;;;9.90;89.90;;;;;;5010339;28;20518;-76
2023/03/14 05:50:10;;;;;;;7.68;3.00;;;9.80;90.50;;;;;;5013195;28;20037;-77
2023/03/14 05:52:36;;;;;;;6.28;2.58;;;9.70;90.70;;;;;;5014731;28;20034;-75
2023/03/14 05:55:02;;;;;;;5.65;3.08;;;9.70;90.90;;;;;;5013303;28;20530;-75
2023/03/14 05:57:27;;;;;;;8.98;3.25;;;9.60;91.40;;;;;;5009453;28;20029;-76
2023/03/14 05:59:53;;;;;;;6.80;2.67;;;9.60;91.10;;;;;;5014765;28;20073;-75
2023/03/14 06:02:18;;;;;;;7.57;2.53;;;9.60;90.70;;;;;;5005983;28;20481;-75
2023/03/14 06:04:44;;;;;;;10.25;2.70;;;9.70;90.20;;;;;;5014692;28;20036;-73
2023/03/14 06:07:09;;;;;;;7.13;3.05;;;9.70;90.10;;;;;;5005691;28;20483;-74
2023/03/14 06:09:35;;;;;;;4.60;2.50;;;9.70;90.00;;;;;;5009657;28;20048;-74
2023/03/14 06:12:00;;;;;;;7.10;2.42;;;9.70;90.20;;;;;;5012256;28;20039;-75
2023/03/14 06:14:26;;;;;;;6.35;2.50;;;9.60;90.80;;;;;;5011567;28;20426;-74
2023/03/14 06:16:52;;;;;;;5.15;2.33;;;9.50;91.20;;;;;;5000372;28;20057;-73
2023/03/14 06:19:18;;;;;;;7.43;2.20;;;9.50;90.90;;;;;;5008919;28;20060;-75
2023/03/14 06:21:43;;;;;;;4.57;2.17;;;9.60;90.50;;;;;;4981982;28;20066;-76
2023/03/14 06:24:09;;;;;;;5.55;2.03;;;9.50;90.60;;;;;;5005683;28;20426;-76
2023/03/14 06:26:34;;;;;;;6.30;2.20;;;9.60;90.00;;;;;;5001256;28;20036;-75
2023/03/14 06:29:03;;;;;;;6.78;2.25;;;9.60;90.10;;;;;;5011337;28;20083;-75
2023/03/14 06:31:32;;;;;;;13.00;2.65;;;9.50;90.30;;;;;;5008024;28;20023;-75
2023/03/14 06:33:57;;;;;;;9.95;2.75;;;9.50;90.50;;;;;;5008782;28;20036;-74
2023/03/14 06:36:24;;;;;;;10.45;2.67;;;9.50;90.80;;;;;;4999399;28;20034;-73
2023/03/14 06:38:49;;;;;;;6.95;2.58;;;9.50;91.00;;;;;;5008421;28;20109;-75
2023/03/14 06:41:15;;;;;;;8.80;2.78;;;9.40;91.00;;;;;;5014336;28;20104;-75
2023/03/14 06:43:40;;;;;;;7.32;2.10;;;9.40;90.80;;;;;;5003873;28;20140;-76
2023/03/14 06:46:06;;;;;;;7.68;2.30;;;9.50;90.30;;;;;;5000907;28;20046;-74
2023/03/14 06:48:31;;;;;;;6.72;1.80;;;9.40;90.30;;;;;;5003942;28;20561;-74
2023/03/14 06:50:57;;;;;;;4.35;1.75;;;9.50;90.30;;;;;;4996565;28;20030;-74
2023/03/14 06:53:23;;;;;;;4.20;1.48;;;9.50;89.50;;;;;;4999027;28;20049;-73
2023/03/14 06:55:49;;;;;;;4.75;1.42;;;9.50;89.50;;;;;;5000272;28;20034;-73
2023/03/14 06:58:15;;;;;;;4.53;1.42;;;9.50;89.60;;;;;;5008921;28;20034;-74
2023/03/14 07:00:40;;;;;;;5.22;1.40;;;9.50;89.50;;;;;;5011159;28;20040;-72
2023/03/14 07:03:06;;;;;;;4.07;1.30;;;9.50;89.50;;;;;;5008073;28;20148;-76
2023/03/14 07:05:31;;;;;;;2.97;1.10;;;9.50;89.40;;;;;;5003907;28;20041;-79
2023/03/14 07:07:57;;;;;;;5.15;1.48;;;9.60;89.60;;;;;;5007462;28;20049;-76
2023/03/14 07:10:23;;;;;;;3.53;1.50;;;9.60;89.70;;;;;;5009018;28;20069;-79
2023/03/14 07:12:48;;;;;;;3.97;1.45;;;9.60;89.60;;;;;;5007648;28;20427;-77
2023/03/14 07:15:14;;;;;;;6.07;1.35;;;9.70;89.60;;;;;;5008962;28;20031;-77
2023/03/14 07:17:40;;;;;;;5.00;1.85;;;9.80;89.20;;;;;;5005671;28;20045;-78
2023/03/14 07:20:06;;;;;;;4.53;2.00;;;9.90;89.40;;;;;;5004492;28;20033;-79
2023/03/14 07:22:32;;;;;;;6.40;1.95;;;9.80;89.30;;;;;;5008255;28;20038;-78
2023/03/14 07:24:58;;;;;;;5.82;2.65;;;9.80;89.30;;;;;;5004345;28;20029;-80
2023/03/14 07:27:24;;;;;;;4.82;2.20;;;9.80;89.50;;;;;;5012110;28;20068;-78
2023/03/14 07:29:49;;;;;;;7.03;2.40;;;9.80;89.90;;;;;;5008808;28;20034;-80
2023/03/14 07:32:14;;;;;;;3.92;2.25;;;9.70;90.20;;;;;;5009815;28;20033;-79
2023/03/14 07:34:41;;;;;;;10.60;2.65;;;9.70;90.80;;;;;;5018005;28;20475;-76
2023/03/14 07:37:07;;;;;;;5.53;2.65;;;9.70;91.10;;;;;;5008343;28;20117;-80
2023/03/14 07:39:32;;;;;;;8.20;2.97;;;9.60;91.20;;;;;;5011869;28;20125;-80
2023/03/14 07:41:58;;;;;;;11.55;3.00;;;9.60;91.10;;;;;;5008732;28;20030;-81
2023/03/14 07:44:23;;;;;;;8.27;2.65;;;9.50;91.10;;;;;;5012518;28;20072;-77
2023/03/14 07:46:49;;;;;;;9.55;2.72;;;9.50;91.30;;;;;;5011726;28;20062;-75
2023/03/14 07:49:14;;;;;;;7.22;3.03;;;9.50;91.20;;;;;;5008364;28;20391;-77
2023/03/14 07:51:40;;;;;;;10.93;2.75;;;9.50;91.40;;;;;;5008207;28;20042;-77
2023/03/14 07:54:05;;;;;;;7.65;3.15;;;9.50;91.60;;;;;;5004648;28;20022;-76
2023/03/14 07:56:31;;;;;;;9.55;3.35;;;9.60;91.40;;;;;;5003351;28;20045;-73
2023/03/14 07:58:57;;;;;;;10.98;3.97;;;9.60;91.50;;;;;;5009598;28;20041;-77
2023/03/14 08:01:22;;;;;;;7.35;3.17;;;9.60;91.20;;;;;;4999919;28;20061;-75
2023/03/14 08:03:48;;;;;;;10.63;3.85;;;9.60;91.20;;;;;;5001995;28;20033;-76
2023/03/14 08:06:13;;;;;;;10.90;3.60;;;9.60;91.30;;;;;;4998284;28;20057;-78
2023/03/14 08:08:39;;;;;;;9.27;4.15;;;9.70;91.20;;;;;;5000031;28;20034;-77
2023/03/14 08:11:08;;;;;;;8.82;3.80;;;9.80;90.50;;;;;;5006304;28;20398;-77
2023/03/14 08:13:34;;;;;;;12.60;4.10;;;9.90;90.30;;;;;;5013062;28;20064;-77
2023/03/14 08:16:00;;;;;;;12.38;4.25;;;10.10;90.10;;;;;;5009211;28;20041;-78
2023/03/14 08:18:25;;;;;;;11.50;4.18;;;10.40;88.80;;;;;;5005107;28;20367;-77
2023/03/14 08:20:51;;;;;;;10.70;4.35;;;10.60;89.10;;;;;;5013278;28;20420;-76
2023/03/14 08:23:16;;;;;;;9.77;4.03;;;10.60;88.30;;;;;;5008284;28;20038;-77
2023/03/14 08:25:43;;;;;;;8.85;4.03;;;10.50;88.30;;;;;;5013878;28;20083;-77
2023/03/14 08:28:08;;;;;;;11.55;5.10;;;10.60;88.50;;;;;;5005726;28;20034;-77
2023/03/14 08:30:34;;;;;;;7.60;4.30;;;10.50;88.20;;;;;;5011296;28;20056;-78
2023/03/14 08:32:59;;;;;;;12.50;4.57;;;10.70;88.30;;;;;;5009426;28;20037;-77
2023/03/14 08:35:26;;;;;;;13.68;5.05;;;10.70;87.80;;;;;;4985305;28;20033;-77
2023/03/14 08:37:52;;;;;;;10.93;4.95;;;10.70;87.60;;;;;;5001689;28;20033;-77
2023/03/14 08:40:18;;;;;;;11.30;4.85;;;10.80;87.90;;;;;;4988252;28;20079;-78
2023/03/14 08:42:43;;;;;;;9.40;4.68;;;10.90;87.50;;;;;;5010590;28;20115;-78
2023/03/14 08:45:12;;;;;;;9.48;4.30;;;10.90;87.00;;;;;;5017804;28;20179;-78
2023/03/14 08:47:37;;;;;;;7.93;4.13;;;11.10;86.90;;;;;;5006417;28;20049;-78
2023/03/14 08:50:05;;;;;;;8.48;3.85;;;11.10;86.40;;;;;;5006086;28;20045;-77
2023/03/14 08:52:31;;;;;;;8.50;3.60;;;11.10;86.10;;;;;;5006069;28;20026;-77
2023/03/14 08:54:57;;;;;;;10.98;3.78;;;11.00;85.80;;;;;;5011133;28;20022;-77
2023/03/14 08:57:27;;;;;;;8.27;3.42;;;10.90;86.00;;;;;;5008514;28;20045;-77
2023/03/14 08:59:55;;;;;;;11.60;3.40;;;10.90;86.00;;;;;;5010708;28;20032;-78
2023/03/14 09:02:21;;;;;;;10.65;3.33;;;10.90;86.50;;;;;;5009974;28;20030;-75
2023/03/14 09:04:47;;;;;;;11.27;3.28;;;11.00;86.20;;;;;;5002120;28;20022;-74
2023/03/14 09:07:12;;;;;;;5.97;2.85;;;10.80;85.00;;;;;;5000556;28;20138;-75
2023/03/14 09:09:38;;;;;;;13.25;2.80;;;10.80;85.50;;;;;;4998205;28;20028;-76
2023/03/14 09:12:04;;;;;;;9.07;2.78;;;10.90;84.80;;;;;;5009951;28;20029;-77
2023/03/14 09:14:30;;;;;;;8.02;3.42;;;10.90;85.60;;;;;;5019030;28;20105;-75
2023/03/14 09:16:56;;;;;;;8.23;2.38;;;10.90;85.70;;;;;;5011189;28;20117;-76
2023/03/14 09:19:21;;;;;;;7.78;2.35;;;11.00;84.70;;;;;;5010470;28;20385;-76
2023/03/14 09:21:47;;;;;;;6.90;1.85;;;11.00;84.90;;;;;;5009174;28;20033;-77
2023/03/14 09:24:12;;;;;;;7.53;2.65;;;11.10;84.20;;;;;;5014815;28;20060;-76
2023/03/14 09:26:38;;;;;;;5.45;2.05;;;11.10;83.80;;;;;;5008003;28;20030;-75
2023/03/14 09:29:03;;;;;;;9.60;2.55;;;11.10;83.30;;;;;;5013035;28;20069;-77
2023/03/14 09:31:29;;;;;;;8.55;2.20;;;11.20;83.90;;;;;;5014352;28;20033;-77
2023/03/14 09:33:55;;;;;;;6.78;2.00;;;11.20;84.60;;;;;;5011424;28;20057;-76
2023/03/14 09:36:20;;;;;;;5.28;1.63;;;11.00;86.30;;;;;;5006988;28;20026;-77
2023/03/14 09:38:46;;;;;;;4.45;1.73;;;10.80;86.00;;;;;;5014072;28;20041;-78
2023/03/14 09:41:24;;;;;;;5.82;1.63;;;10.80;86.20;;;;;;5008952;28;20541;-76
2023/03/14 09:43:57;;;;;;;5.88;2.10;;;10.60;87.30;;;;;;5013186;28;20037;-77
2023/03/14 09:46:22;;;;;;;4.18;1.95;;;10.60;87.80;;;;;;5009578;28;20076;-75
2023/03/14 09:48:48;;;;;;;7.32;2.58;;;10.50;88.60;;;;;;5013728;28;20289;-76
2023/03/14 09:51:17;;;;;;;3.22;1.45;;;10.40;89.60;;;;;;5009594;28;20047;-75
2023/03/14 09:53:48;;;;;;;5.38;1.75;;;10.20;90.70;;;;;;5012245;28;20056;-75
2023/03/14 09:56:20;;;;;;;3.63;1.38;;;10.00;91.40;;;;;;5010963;28;20022;-79
2023/03/14 09:58:58;;;;;;;7.07;1.23;;;9.70;93.00;;;;;;5011482;28;20034;-79
2023/03/14 10:01:27;;;;;;;2.97;0.70;;;8.90;95.10;;;;;;5024373;28;20033;-78
2023/03/14 10:04:00;;;;;;;1.15;0.35;;;7.60;93.00;;;;;;5009682;28;20108;-78
2023/03/14 10:06:29;;;;;;;1.15;0.30;;;6.80;94.10;;;;;;5005395;28;20060;-76
2023/03/14 10:08:56;;;;;;;0.75;0.25;;;6.60;94.90;;;;;;5005170;28;20414;-78
2023/03/14 10:11:23;;;;;;;3.17;0.50;;;6.40;95.60;;;;;;5010327;28;20044;-77
2023/03/14 10:13:49;;;;;;;1.45;0.52;;;6.40;96.10;;;;;;5009426;28;20030;-78
2023/03/14 10:16:15;;;;;;;0.75;0.55;;;6.30;96.00;;;;;;5012574;28;20428;-78
2023/03/14 10:18:45;;;;;;;2.75;0.50;;;6.20;95.80;;;;;;5010652;28;20073;-77
2023/03/14 10:21:25;;;;;;;2.03;0.50;;;6.20;96.10;;;;;;5013143;28;20124;-77
2023/03/14 10:23:50;;;;;;;0.73;0.40;;;6.10;96.00;;;;;;5011106;28;20462;-75
2023/03/14 10:26:18;;;;;;;3.58;1.00;;;6.10;96.30;;;;;;5002850;28;20029;-77
2023/03/14 10:28:51;;;;;;;2.13;0.82;;;6.00;96.50;;;;;;5007470;28;20030;-78
2023/03/14 10:31:16;;;;;;;4.88;0.90;;;5.90;96.30;;;;;;5009483;28;20037;-78
2023/03/14 10:33:56;;;;;;;1.23;0.50;;;5.60;95.80;;;;;;5002843;28;20029;-77
2023/03/14 10:36:26;;;;;;;0.98;0.50;;;5.30;95.10;;;;;;5013139;28;20120;-74
2023/03/14 10:39:04;;;;;;;1.95;0.30;;;5.10;95.30;;;;;;5017873;28;20041;-76
2023/03/14 10:41:31;;;;;;;2.40;0.50;;;5.10;95.40;;;;;;5010362;28;21031;-77
2023/03/14 10:43:59;;;;;;;1.75;0.70;;;4.90;95.60;;;;;;5010808;28;20025;-77
2023/03/14 10:46:26;;;;;;;3.65;0.77;;;4.80;95.90;;;;;;5016591;28;20339;-75
2023/03/14 10:48:53;;;;;;;1.23;0.60;;;4.60;95.90;;;;;;5011382;28;20442;-77
2023/03/14 10:51:27;;;;;;;1.33;0.90;;;4.60;96.40;;;;;;5007740;28;20513;-77
2023/03/14 10:54:03;;;;;;;2.50;1.10;;;4.60;96.60;;;;;;4999194;28;20069;-76
2023/03/14 10:56:35;;;;;;;2.30;1.42;;;4.50;96.20;;;;;;5006913;28;20034;-77
2023/03/14 10:59:03;;;;;;;4.88;1.70;;;4.40;96.20;;;;;;5006267;28;20037;-75
2023/03/14 11:01:53;;;;;;;2.33;1.33;;;4.50;96.30;;;;;;5011335;28;20020;-77
2023/03/14 11:04:31;;;;;;;2.40;1.70;;;4.60;96.30;;;;;;5007298;28;20032;-77
2023/03/14 11:07:26;;;;;;;2.15;1.85;;;4.50;95.70;;;;;;5006312;28;20045;-77
2023/03/14 11:10:12;;;;;;;1.60;1.10;;;4.60;96.10;;;;;;5002839;28;20090;-78
2023/03/14 11:13:14;;;;;;;2.22;1.30;;;4.30;95.20;;;;;;5011122;28;20033;-78
2023/03/14 11:15:59;;;;;;;1.27;1.05;;;4.20;95.20;;;;;;5010999;28;20030;-79
2023/03/14 11:18:44;;;;;;;1.65;0.68;;;4.20;95.20;;;;;;4976731;28;20049;-72
2023/03/14 11:21:29;;;;;;;3.30;0.93;;;4.20;95.20;;;;;;4996700;28;20066;-74
2023/03/14 11:24:10;;;;;;;1.27;0.90;;;4.30;95.00;;;;;;5002588;28;20039;-75
2023/03/14 11:26:50;;;;;;;2.38;1.00;;;4.30;94.90;;;;;;5009081;28;20029;-74
2023/03/14 11:29:23;;;;;;;3.55;1.30;;;4.30;94.80;;;;;;4999957;28;20030;-74
2023/03/14 11:31:48;;;;;;;2.03;0.90;;;4.20;94.90;;;;;;5001001;28;20041;-74
2023/03/14 11:34:27;;;;;;;2.25;1.10;;;4.10;94.40;;;;;;5004009;28;20415;-74
2023/03/14 11:37:01;;;;;;;2.17;1.33;;;4.10;94.40;;;;;;5011362;28;20066;-74
2023/03/14 11:39:38;;;;;;;3.58;1.55;;;4.10;94.70;;;;;;5008364;28;20022;-75
2023/03/14 11:42:03;;;;;;;5.32;2.00;;;4.10;95.00;;;;;;5003889;28;20487;-74
2023/03/14 11:44:34;;;;;;;2.95;1.33;;;4.20;94.70;;;;;;4999565;28;20077;-75
2023/03/14 11:47:02;;;;;;;3.00;1.45;;;4.30;95.00;;;;;;5004007;28;20416;-75
2023/03/14 11:49:48;;;;;;;4.65;1.17;;;4.30;94.50;;;;;;5006854;28;20037;-74
2023/03/14 11:52:23;;;;;;;3.78;1.17;;;4.30;93.50;;;;;;5005224;28;20030;-74
2023/03/14 11:54:56;;;;;;;3.65;1.20;;;4.30;93.60;;;;;;5002722;28;20034;-74
2023/03/14 11:57:22;;;;;;;5.68;1.13;;;4.30;93.80;;;;;;5005582;28;20121;-74
2023/03/14 12:00:12;;;;;;;3.35;1.20;;;4.20;93.30;;;;;;5006110;28;20037;-71
2023/03/14 12:02:43;;;;;;;4.87;1.17;;;4.10;93.50;;;;;;5006871;28;20062;-74
2023/03/14 12:05:45;;;;;;;4.63;1.17;;;4.20;93.90;;;;;;4999748;28;20455;-74
2023/03/14 12:08:30;;;;;;;3.92;1.50;;;4.20;93.80;;;;;;4991008;28;20057;-73
2023/03/14 12:11:33;;;;;;;4.15;1.42;;;4.30;94.10;;;;;;5005431;28;20038;-74
2023/03/14 12:13:59;;;;;;;8.85;1.77;;;4.20;93.60;;;;;;5004584;28;20027;-74
2023/03/14 12:16:29;;;;;;;9.02;2.00;;;4.40;94.30;;;;;;5004131;28;20026;-73
2023/03/14 12:18:55;;;;;;;6.60;1.67;;;4.50;94.40;;;;;;5001370;28;20026;-74
2023/03/14 12:21:21;;;;;;;5.22;1.70;;;4.50;93.70;;;;;;5011944;28;20034;-74
2023/03/14 12:23:55;;;;;;;4.95;1.65;;;4.50;93.80;;;;;;5006281;28;20040;-74
2023/03/14 12:26:42;;;;;;;7.68;1.60;;;4.70;93.30;;;;;;5013755;28;20581;-74
2023/03/14 12:29:16;;;;;;;8.10;1.90;;;4.80;93.20;;;;;;5003443;28;20381;-74
2023/03/14 12:32:05;;;;;;;9.98;1.40;;;4.90;92.50;;;;;;5004336;28;20066;-74
2023/03/14 12:34:39;;;;;;;4.45;1.10;;;5.00;93.30;;;;;;5006958;28;20463;-72
2023/03/14 12:37:16;;;;;;;12.73;1.38;;;4.90;92.00;;;;;;5000137;28;20030;-73
2023/03/14 12:40:00;;;;;;;7.55;1.40;;;4.90;92.10;;;;;;5005222;28;20038;-75
2023/03/14 12:42:28;;;;;;;12.15;1.00;;;4.80;90.90;;;;;;5006383;28;20160;-75
2023/03/14 12:45:29;;;;;;;9.38;1.33;;;4.70;91.20;;;;;;5006622;28;20034;-74
2023/03/14 12:48:09;;;;;;;9.38;1.73;;;4.60;90.70;;;;;;5010202;28;20065;-73
2023/03/14 12:50:45;;;;;;;12.45;1.67;;;4.50;92.20;;;;;;5012982;28;20486;-74
2023/03/14 12:53:32;;;;;;;9.27;1.45;;;4.50;92.50;;;;;;5006863;28;20129;-72
2023/03/14 12:56:21;;;;;;;9.07;1.55;;;4.60;92.50;;;;;;5011254;28;20038;-75
2023/03/14 12:59:02;;;;;;;9.57;2.10;;;4.60;91.80;;;;;;5006891;28;20500;-74
2023/03/14 13:01:27;;;;;;;15.13;2.03;;;4.80;90.50;;;;;;4992924;28;20494;-74